createdAt,value
2019-06-08T00:03:24.543Z,980.96
2019-06-08T00:08:24.553Z,981.08
2019-06-08T00:13:24.537Z,981.21
2019-06-08T00:18:25.892Z,981.15
2019-06-08T00:23:25.845Z,981.0
2019-06-08T00:28:25.902Z,980.87
2019-06-08T00:33:26.256Z,981.0
2019-06-08T00:38:26.292Z,981.18
2019-06-08T00:43:26.333Z,981.28
2019-06-08T00:48:26.524Z,981.44
2019-06-08T00:53:26.529Z,981.42
2019-06-08T00:58:34.942Z,981.26
2019-06-08T01:03:34.966Z,981.45
2019-06-08T01:08:35.001Z,981.5
2019-06-08T01:13:35.036Z,981.58
2019-06-08T01:18:35.158Z,981.56
2019-06-08T01:23:35.190Z,981.85
2019-06-08T01:28:35.314Z,982.03
2019-06-08T01:33:35.346Z,982.06
2019-06-08T01:38:35.383Z,982.27
2019-06-08T01:43:35.498Z,982.31
2019-06-08T01:48:35.531Z,982.29
2019-06-08T01:53:41.907Z,982.26
2019-06-08T01:58:41.927Z,982.18
2019-06-08T02:03:41.973Z,982.16
2019-06-08T02:08:42.125Z,982.27
2019-06-08T02:13:42.161Z,982.29
2019-06-08T02:18:51.547Z,982.2
2019-06-08T02:23:42.285Z,982.22
2019-06-08T02:28:42.405Z,982.17
2019-06-08T02:33:42.598Z,982.31
2019-06-08T02:38:42.398Z,982.32
2019-06-08T02:43:42.437Z,982.45
2019-06-08T02:49:05.255Z,982.27
2019-06-08T02:53:48.945Z,982.43
2019-06-08T02:58:49.129Z,982.57
2019-06-08T03:03:49.146Z,982.68
2019-06-08T03:08:49.403Z,982.51
2019-06-08T03:13:49.154Z,982.65
2019-06-08T03:18:49.343Z,982.79
2019-06-08T03:23:49.358Z,982.79
2019-06-08T03:28:49.394Z,983.08
2019-06-08T03:33:57.139Z,983.19
2019-06-08T03:38:49.522Z,983.17
2019-06-08T03:43:55.920Z,983.24
2019-06-08T03:48:55.938Z,983.37
2019-06-08T03:53:56.053Z,983.39
2019-06-08T03:58:56.090Z,983.36
2019-06-08T04:04:00.528Z,983.46
2019-06-08T04:08:56.242Z,983.35
2019-06-08T04:13:56.277Z,983.39
2019-06-08T04:18:56.422Z,983.53
2019-06-08T04:23:56.444Z,983.57
2019-06-08T04:28:56.559Z,983.64
2019-06-08T04:33:56.569Z,983.47
2019-06-08T04:39:02.992Z,983.63
2019-06-08T04:44:03.034Z,983.78
2019-06-08T04:49:03.062Z,983.78
2019-06-08T04:54:03.296Z,983.87
2019-06-08T04:59:03.268Z,984.0
2019-06-08T05:04:03.287Z,984.16
2019-06-08T05:09:03.832Z,984.18
2019-06-08T05:14:03.461Z,984.31
2019-06-08T05:19:03.465Z,984.43
2019-06-08T05:24:03.650Z,984.56
2019-06-08T05:29:03.641Z,984.61
2019-06-08T06:04:58.251Z,984.73
2019-06-08T06:10:12.787Z,984.79
2019-06-08T06:20:35.130Z,984.95
2019-06-08T06:25:35.350Z,985.0
2019-06-08T06:30:35.623Z,984.91
2019-06-08T06:35:36.110Z,984.99
2019-06-08T06:40:43.581Z,985.02
2019-06-08T06:45:44.514Z,985.01
2019-06-08T06:50:44.543Z,985.05
2019-06-08T06:55:43.387Z,985.1
2019-06-08T07:00:43.723Z,985.14
2019-06-08T07:05:44.264Z,985.14
2019-06-08T07:10:44.815Z,985.12
2019-06-08T07:15:44.578Z,985.19
2019-06-08T07:20:43.682Z,985.24
2019-06-08T07:25:43.702Z,985.18
2019-06-08T07:30:43.800Z,985.2
2019-06-08T07:35:51.720Z,985.25
2019-06-08T07:40:50.237Z,985.22
2019-06-08T07:45:48.325Z,985.25
2019-06-08T07:50:50.452Z,985.25
2019-06-08T07:55:51.519Z,985.27
2019-06-08T08:00:54.215Z,985.29
2019-06-08T08:05:48.704Z,985.27
2019-06-08T08:10:48.873Z,985.22
2019-06-08T08:15:50.998Z,985.28
2019-06-08T08:20:51.317Z,985.35
2019-06-08T08:32:02.357Z,985.37
2019-06-08T08:37:09.458Z,985.36
2019-06-08T08:42:07.825Z,985.43
2019-06-08T08:47:03.116Z,985.4
2019-06-08T08:52:02.185Z,985.44
2019-06-08T08:57:08.362Z,985.37
2019-06-08T09:02:03.373Z,985.42
2019-06-08T09:07:10.876Z,985.48
2019-06-08T09:12:04.899Z,985.48
2019-06-08T09:17:03.998Z,985.55
2019-06-08T09:29:25.288Z,985.56
2019-06-08T09:34:28.060Z,985.73
2019-06-08T09:39:29.182Z,985.7
2019-06-08T09:44:28.647Z,985.66
2019-06-08T09:49:28.618Z,985.64
2019-06-08T09:54:28.848Z,985.63
2019-06-08T09:59:29.055Z,985.66
2019-06-08T10:04:31.975Z,985.65
2019-06-08T10:09:28.965Z,985.72
2019-06-08T10:14:31.186Z,985.63
2019-06-08T10:19:28.272Z,985.62
2019-06-08T10:24:34.653Z,985.64
2019-06-08T10:29:34.671Z,985.68
2019-06-08T10:34:34.786Z,985.53
2019-06-08T10:39:34.792Z,985.52
2019-06-08T10:44:34.911Z,985.57
2019-06-08T10:49:34.946Z,985.49
2019-06-08T10:54:37.316Z,985.51
2019-06-08T10:59:40.705Z,985.46
2019-06-08T11:04:35.413Z,985.47
2019-06-08T11:09:35.162Z,985.51
2019-06-08T11:14:35.363Z,985.52
2019-06-08T11:19:42.090Z,985.4
2019-06-08T11:24:42.110Z,985.4
2019-06-08T11:29:42.226Z,985.43
2019-06-08T11:34:42.269Z,985.5
2019-06-08T11:39:42.362Z,985.41
2019-06-08T11:44:42.311Z,985.32
2019-06-08T11:49:42.456Z,985.37
2019-06-08T11:54:42.745Z,985.31
2019-06-08T11:59:42.718Z,985.32
2019-06-08T12:04:42.753Z,985.32
2019-06-08T12:09:42.861Z,985.31
2019-06-08T12:14:49.181Z,985.29
2019-06-08T12:19:49.218Z,985.25
2019-06-08T12:24:49.400Z,985.31
2019-06-08T12:29:51.029Z,985.32
2019-06-08T12:34:49.504Z,985.25
2019-06-08T12:39:49.521Z,985.2
2019-06-08T12:44:49.636Z,985.2
2019-06-08T12:49:49.745Z,985.09
2019-06-08T12:55:12.436Z,985.21
2019-06-08T12:59:49.809Z,985.2
2019-06-08T13:04:49.828Z,985.29
2019-06-08T13:09:58.809Z,985.29
2019-06-08T13:14:58.812Z,985.31
2019-06-08T13:19:58.664Z,985.36
2019-06-08T13:25:04.268Z,985.35
2019-06-08T13:29:58.316Z,985.33
2019-06-08T13:34:58.894Z,985.43
2019-06-08T13:39:59.436Z,985.38
2019-06-08T13:44:58.356Z,985.39
2019-06-08T13:49:56.708Z,985.35
2019-06-08T13:54:58.929Z,985.3
2019-06-08T13:59:58.482Z,985.28
2019-06-08T14:05:08.576Z,985.24
2019-06-08T14:10:06.081Z,985.18
2019-06-08T14:15:08.760Z,985.18
2019-06-08T14:20:08.649Z,985.23
2019-06-08T14:25:11.009Z,985.24
2019-06-08T14:30:08.861Z,985.2
2019-06-08T14:35:09.194Z,985.25
2019-06-08T14:40:08.710Z,985.25
2019-06-08T14:45:11.123Z,985.3
2019-06-08T14:50:08.530Z,985.32
2019-06-08T14:55:08.565Z,985.27
2019-06-08T15:00:13.631Z,985.28
2019-06-08T15:05:13.523Z,985.25
2019-06-08T15:10:13.704Z,985.19
2019-06-08T15:15:13.719Z,985.14
2019-06-08T15:20:13.744Z,985.06
2019-06-08T15:25:13.927Z,985.18
2019-06-08T15:30:13.892Z,985.11
2019-06-08T15:35:13.919Z,985.05
2019-06-08T15:40:13.938Z,984.99
2019-06-08T15:45:14.182Z,984.97
2019-06-08T15:50:14.126Z,984.87
2019-06-08T15:55:20.593Z,984.87
2019-06-08T16:00:20.555Z,984.87
2019-06-08T16:05:20.668Z,984.91
2019-06-08T16:10:20.978Z,984.95
2019-06-08T16:15:20.765Z,984.94
2019-06-08T16:20:20.949Z,984.95
2019-06-08T16:25:20.977Z,984.92
2019-06-08T16:30:21.013Z,984.89
2019-06-08T16:35:21.130Z,984.95
2019-06-08T16:40:21.165Z,984.96
2019-06-08T16:45:22.615Z,984.97
2019-06-08T16:50:30.421Z,984.96
2019-06-08T16:55:31.793Z,984.99
2019-06-08T17:00:40.669Z,985.01
2019-06-08T17:05:29.442Z,985.01
2019-06-08T17:10:30.647Z,985.06
2019-06-08T17:15:31.852Z,985.08
2019-06-08T17:20:31.752Z,985.09
2019-06-08T17:25:30.892Z,985.02
2019-06-08T17:30:30.559Z,985.03
2019-06-08T17:35:29.651Z,985.07
2019-06-08T17:40:29.895Z,985.1
2019-06-08T17:45:36.912Z,985.1
2019-06-08T17:50:37.059Z,985.14
2019-06-08T17:55:37.463Z,985.15
2019-06-08T18:00:37.663Z,985.12
2019-06-08T18:05:44.288Z,985.14
2019-06-08T18:10:42.617Z,985.16
2019-06-08T18:15:43.345Z,985.25
2019-06-08T18:20:43.531Z,985.23
2019-06-08T18:25:41.774Z,985.28
2019-06-08T18:30:44.741Z,985.32
2019-06-08T18:35:44.232Z,985.28
2019-06-08T18:40:44.969Z,985.32
2019-06-08T18:45:48.423Z,985.36
2019-06-08T18:50:45.172Z,985.36
2019-06-08T18:55:50.223Z,985.48
2019-06-08T19:00:51.405Z,985.5
2019-06-08T19:05:51.979Z,985.58
2019-06-08T19:10:48.308Z,985.57
2019-06-08T19:15:53.148Z,985.63
2019-06-08T19:20:50.883Z,985.66
2019-06-08T19:25:49.740Z,985.72
2019-06-08T19:30:51.529Z,985.84
2019-06-08T19:35:54.588Z,985.96
2019-06-08T19:40:52.684Z,985.97
2019-06-08T19:45:52.931Z,985.98
2019-06-08T19:50:54.939Z,986.02
2019-06-08T19:55:56.985Z,986.02
2019-06-08T20:00:58.730Z,986.09
2019-06-08T20:05:54.150Z,986.14
2019-06-08T20:10:54.186Z,986.18
2019-06-08T20:16:02.499Z,986.21
2019-06-08T20:20:54.925Z,986.22
2019-06-08T20:25:53.901Z,986.33
2019-06-08T20:30:59.706Z,986.43
2019-06-08T20:36:00.186Z,986.43
2019-06-08T20:41:00.295Z,986.44
2019-06-08T20:46:00.680Z,986.38
2019-06-08T20:51:00.689Z,986.35
2019-06-08T20:56:00.739Z,986.41
2019-06-08T21:01:00.859Z,986.51
2019-06-08T21:06:00.933Z,986.59
2019-06-08T21:11:00.914Z,986.61
2019-06-08T21:16:01.475Z,986.54
2019-06-08T21:21:01.068Z,986.53
2019-06-08T21:26:08.558Z,986.61
2019-06-08T21:31:09.083Z,986.67
2019-06-08T21:36:09.310Z,986.61
2019-06-08T21:41:08.830Z,986.61
2019-06-08T21:46:08.380Z,986.7
2019-06-08T21:51:08.834Z,986.8
2019-06-08T21:56:08.478Z,986.78
2019-06-08T22:01:08.009Z,986.86
2019-06-08T22:06:08.543Z,986.94
2019-06-08T22:11:09.560Z,986.93
2019-06-08T22:16:08.967Z,986.94
2019-06-08T22:21:14.339Z,986.92
2019-06-08T22:26:14.370Z,987.0
2019-06-08T22:31:14.429Z,986.95
2019-06-08T22:36:15.322Z,986.95
2019-06-08T22:41:14.604Z,986.96
2019-06-08T22:46:14.630Z,987.02
2019-06-08T22:51:14.744Z,987.09
2019-06-08T22:56:14.784Z,987.05
2019-06-08T23:01:14.872Z,986.85
2019-06-08T23:06:17.916Z,986.9
2019-06-08T23:11:14.974Z,986.9
2019-06-08T23:16:21.342Z,986.93
2019-06-08T23:21:21.462Z,986.92
2019-06-08T23:26:21.469Z,986.86
2019-06-08T23:31:29.296Z,986.82
2019-06-08T23:37:02.638Z,986.88
2019-06-08T23:41:21.634Z,986.92
2019-06-08T23:46:21.749Z,986.92
2019-06-08T23:51:21.820Z,986.93
2019-06-08T23:56:21.937Z,986.91
